createdAt,value
2023-06-29T00:01:06.680Z,18.01
2023-06-29T00:03:34.526Z,17.92
2023-06-29T00:06:02.881Z,18.05
2023-06-29T00:08:36.773Z,17.96
2023-06-29T00:11:05.940Z,17.83
2023-06-29T00:13:33.768Z,17.86
2023-06-29T00:16:01.621Z,17.87
2023-06-29T00:18:30.758Z,17.85
2023-06-29T00:20:58.846Z,17.73
2023-06-29T00:23:26.785Z,17.63
2023-06-29T00:25:56.624Z,17.60
2023-06-29T00:28:24.548Z,17.68
2023-06-29T00:30:52.368Z,17.66
2023-06-29T00:33:20.098Z,17.71
2023-06-29T00:35:49.185Z,17.47
2023-06-29T00:38:16.990Z,17.45
2023-06-29T00:40:44.777Z,17.34
2023-06-29T00:43:12.555Z,17.24
2023-06-29T00:45:40.268Z,17.35
2023-06-29T00:48:09.092Z,17.43
2023-06-29T00:50:37.900Z,17.22
2023-06-29T00:53:07.544Z,17.09
2023-06-29T00:55:35.693Z,17.14
2023-06-29T00:58:03.642Z,17.29
2023-06-29T01:00:31.464Z,17.33
2023-06-29T01:02:59.393Z,17.36
2023-06-29T01:05:34.191Z,17.28
2023-06-29T01:08:10.066Z,17.37
2023-06-29T01:10:38.157Z,17.35
2023-06-29T01:13:07.793Z,17.33
2023-06-29T01:15:37.101Z,17.17
2023-06-29T01:18:06.782Z,16.98
2023-06-29T01:20:35.391Z,17.15
2023-06-29T01:23:12.012Z,17.21
2023-06-29T01:25:42.973Z,17.02
2023-06-29T01:28:12.854Z,16.91
2023-06-29T01:30:46.306Z,16.80
2023-06-29T01:33:15.474Z,16.90
2023-06-29T01:35:43.760Z,16.95
2023-06-29T01:38:17.605Z,16.76
2023-06-29T01:40:49.422Z,16.67
2023-06-29T01:43:19.008Z,16.73
2023-06-29T01:45:48.965Z,16.81
2023-06-29T01:48:17.280Z,16.88
2023-06-29T01:50:46.323Z,16.83
2023-06-29T01:53:14.154Z,16.63
2023-06-29T01:55:42.388Z,16.58
2023-06-29T01:58:12.073Z,16.57
2023-06-29T02:00:39.887Z,16.76
2023-06-29T02:03:07.772Z,16.49
2023-06-29T02:05:35.616Z,16.30
2023-06-29T02:08:03.532Z,16.23
2023-06-29T02:10:31.268Z,16.35
2023-06-29T02:12:58.980Z,16.47
2023-06-29T02:15:28.125Z,16.58
2023-06-29T02:17:56.288Z,16.58
2023-06-29T02:20:24.153Z,16.50
2023-06-29T02:22:51.880Z,16.45
2023-06-29T02:25:20.067Z,16.46
2023-06-29T02:27:47.829Z,16.49
2023-06-29T02:30:16.018Z,16.28
2023-06-29T02:32:45.217Z,16.12
2023-06-29T02:35:12.995Z,16.22
2023-06-29T02:37:40.810Z,16.34
2023-06-29T02:40:09.839Z,16.33
2023-06-29T02:42:38.414Z,16.22
2023-06-29T02:45:07.588Z,16.30
2023-06-29T02:47:35.458Z,16.10
2023-06-29T02:50:04.855Z,16.23
2023-06-29T02:52:32.599Z,16.10
2023-06-29T02:55:00.400Z,16.18
2023-06-29T02:57:28.202Z,16.31
2023-06-29T02:59:55.973Z,16.29
2023-06-29T03:02:23.782Z,16.35
2023-06-29T03:04:51.570Z,16.41
2023-06-29T03:07:20.720Z,16.36
2023-06-29T03:09:48.535Z,16.26
2023-06-29T03:12:16.404Z,16.27
2023-06-29T03:14:44.184Z,16.35
2023-06-29T03:17:14.546Z,16.28
2023-06-29T03:19:42.585Z,16.29
2023-06-29T03:22:10.346Z,16.29
2023-06-29T03:24:39.481Z,16.38
2023-06-29T03:27:07.819Z,16.15
2023-06-29T03:29:35.634Z,16.22
2023-06-29T03:32:03.388Z,16.05
2023-06-29T03:34:31.143Z,16.06
2023-06-29T03:36:58.852Z,16.16
2023-06-29T03:39:26.602Z,16.23
2023-06-29T03:41:55.711Z,16.41
2023-06-29T03:44:23.498Z,16.51
2023-06-29T03:46:53.702Z,16.55
2023-06-29T03:49:21.431Z,16.46
2023-06-29T03:51:49.362Z,16.57
2023-06-29T03:54:17.143Z,16.57
2023-06-29T03:56:45.268Z,16.47
2023-06-29T03:59:14.371Z,16.58
2023-06-29T04:01:42.152Z,16.69
2023-06-29T04:04:10.002Z,16.64
2023-06-29T04:06:37.755Z,16.66
2023-06-29T04:09:05.648Z,16.91
2023-06-29T04:11:33.573Z,16.94
2023-06-29T04:14:01.272Z,17.16
2023-06-29T04:16:31.106Z,17.10
2023-06-29T04:18:59.071Z,17.03
2023-06-29T04:21:26.788Z,16.96
2023-06-29T04:23:54.562Z,17.00
2023-06-29T04:26:23.536Z,17.10
2023-06-29T04:28:51.836Z,17.21
2023-06-29T04:31:19.790Z,17.46
2023-06-29T04:33:48.930Z,17.27
2023-06-29T04:36:18.532Z,17.60
2023-06-29T04:38:47.133Z,17.61
2023-06-29T04:41:15.406Z,17.63
2023-06-29T04:43:43.179Z,17.74
2023-06-29T04:46:10.977Z,17.56
2023-06-29T04:48:39.442Z,17.71
2023-06-29T04:51:08.860Z,17.81
2023-06-29T04:53:37.343Z,17.70
2023-06-29T04:56:05.286Z,17.70
2023-06-29T04:58:33.486Z,17.71
2023-06-29T05:01:01.298Z,18.00
2023-06-29T05:03:29.469Z,18.10
2023-06-29T05:05:57.376Z,18.37
2023-06-29T05:08:26.500Z,18.57
2023-06-29T05:10:54.278Z,18.44
2023-06-29T05:13:22.035Z,18.46
2023-06-29T05:15:49.885Z,18.36
2023-06-29T05:18:17.971Z,18.47
2023-06-29T05:20:45.852Z,18.40
2023-06-29T05:23:13.744Z,18.57
2023-06-29T05:25:43.548Z,18.76
2023-06-29T05:28:11.751Z,18.94
2023-06-29T05:30:39.526Z,18.89
2023-06-29T05:33:07.357Z,19.06
2023-06-29T05:35:36.141Z,19.19
2023-06-29T05:38:04.207Z,19.49
2023-06-29T05:40:33.612Z,19.56
2023-06-29T05:43:03.196Z,19.58
2023-06-29T05:45:31.001Z,19.38
2023-06-29T05:47:58.875Z,19.60
2023-06-29T05:50:26.648Z,19.74
2023-06-29T05:52:54.379Z,19.52
2023-06-29T05:55:22.182Z,19.95
2023-06-29T05:57:49.972Z,20.29
2023-06-29T06:00:20.358Z,20.48
2023-06-29T06:02:48.508Z,20.38
2023-06-29T06:05:16.495Z,20.25
2023-06-29T06:07:44.302Z,20.34
2023-06-29T06:10:12.348Z,20.33
2023-06-29T06:12:40.164Z,20.72
2023-06-29T06:15:12.341Z,20.67
2023-06-29T06:17:41.679Z,21.08
2023-06-29T06:20:11.106Z,21.19
2023-06-29T06:22:38.879Z,21.90
2023-06-29T06:25:07.339Z,21.60
2023-06-29T06:27:35.147Z,21.50
2023-06-29T06:30:05.743Z,21.28
2023-06-29T06:32:33.690Z,20.91
2023-06-29T06:35:05.236Z,21.43
2023-06-29T06:37:33.110Z,21.23
2023-06-29T06:40:00.944Z,21.08
2023-06-29T06:42:28.789Z,21.72
2023-06-29T06:44:57.103Z,21.94
2023-06-29T06:47:26.196Z,22.13
2023-06-29T06:49:53.941Z,21.93
2023-06-29T06:52:23.068Z,22.04
2023-06-29T06:54:51.861Z,22.28
2023-06-29T06:57:20.288Z,22.27
2023-06-29T06:59:48.168Z,21.89
2023-06-29T07:02:16.293Z,22.29
2023-06-29T07:04:44.279Z,21.59
2023-06-29T07:07:12.060Z,21.71
2023-06-29T07:09:41.504Z,21.58
2023-06-29T07:12:10.547Z,21.85
2023-06-29T07:14:38.290Z,21.97
2023-06-29T07:17:06.890Z,22.65
2023-06-29T07:24:36.643Z,23.91
2023-06-29T07:27:06.329Z,24.23
2023-06-29T07:29:34.756Z,24.06
2023-06-29T07:32:02.566Z,24.65
2023-06-29T07:34:30.442Z,24.26
2023-06-29T07:36:58.262Z,24.49
2023-06-29T07:39:26.068Z,24.77
2023-06-29T07:41:53.862Z,24.26
2023-06-29T07:44:23.048Z,23.72
2023-06-29T07:46:50.845Z,23.96
2023-06-29T07:49:18.559Z,24.32
2023-06-29T07:51:46.686Z,25.35
2023-06-29T07:54:14.506Z,24.99
2023-06-29T07:59:13.025Z,26.42
2023-06-29T08:01:42.194Z,26.85
2023-06-29T08:04:10.523Z,27.17
2023-06-29T08:06:50.765Z,27.00
2023-06-29T08:09:19.435Z,26.12
2023-06-29T08:11:47.570Z,26.18
2023-06-29T08:14:15.346Z,26.77
2023-06-29T08:16:44.476Z,27.47
2023-06-29T08:19:12.419Z,27.64
2023-06-29T08:21:40.419Z,26.99
2023-06-29T08:24:09.473Z,27.81
2023-06-29T08:26:37.269Z,27.98
2023-06-29T08:29:05.046Z,28.40
2023-06-29T08:31:32.917Z,27.34
2023-06-29T08:34:02.210Z,28.00
2023-06-29T08:36:33.230Z,27.31
2023-06-29T08:39:02.129Z,28.58
2023-06-29T08:41:29.980Z,28.09
2023-06-29T08:43:57.802Z,27.11
2023-06-29T08:46:26.252Z,26.45
2023-06-29T08:48:54.346Z,26.17
2023-06-29T08:51:25.624Z,26.57
2023-06-29T08:53:54.838Z,27.81
2023-06-29T08:56:25.795Z,28.94
2023-06-29T08:58:54.607Z,29.19
2023-06-29T09:01:22.861Z,28.19
2023-06-29T09:03:51.446Z,28.72
2023-06-29T09:06:19.973Z,29.86
2023-06-29T09:08:49.248Z,29.42
2023-06-29T09:11:17.588Z,29.54
2023-06-29T09:13:47.299Z,29.92
2023-06-29T09:16:16.588Z,30.37
2023-06-29T09:18:50.130Z,29.70
2023-06-29T09:21:18.802Z,29.52
2023-06-29T09:23:47.576Z,30.48
2023-06-29T09:26:19.396Z,30.75
2023-06-29T09:28:47.903Z,29.35
2023-06-29T09:31:15.916Z,28.63
2023-06-29T09:33:43.760Z,28.41
2023-06-29T09:36:13.375Z,29.40
2023-06-29T09:38:41.175Z,30.32
2023-06-29T09:41:09.367Z,29.68
2023-06-29T09:43:38.635Z,30.22
2023-06-29T09:46:10.297Z,31.00
2023-06-29T09:51:21.629Z,31.10
2023-06-29T09:53:49.595Z,30.96
2023-06-29T09:56:18.312Z,30.87
2023-06-29T09:58:48.123Z,30.66
2023-06-29T10:01:17.088Z,31.77
2023-06-29T10:03:45.374Z,31.67
2023-06-29T10:06:15.578Z,32.27
2023-06-29T10:08:44.759Z,32.92
2023-06-29T10:11:12.720Z,32.34
2023-06-29T10:13:48.388Z,32.95
2023-06-29T10:16:21.605Z,32.26
2023-06-29T10:18:51.990Z,32.82
2023-06-29T10:21:19.844Z,31.51
2023-06-29T10:23:48.655Z,31.34
2023-06-29T10:26:17.804Z,32.14
2023-06-29T10:28:46.362Z,33.08
2023-06-29T10:31:21.202Z,33.04
2023-06-29T10:33:49.678Z,32.33
2023-06-29T10:36:18.264Z,33.12
2023-06-29T10:38:46.200Z,34.13
2023-06-29T10:41:27.216Z,33.00
2023-06-29T10:43:59.211Z,32.89
2023-06-29T10:46:47.309Z,33.06
2023-06-29T10:49:22.685Z,32.76
2023-06-29T10:51:54.303Z,33.51
2023-06-29T10:54:25.755Z,32.40
2023-06-29T10:57:00.935Z,33.03
2023-06-29T10:59:29.357Z,33.80
2023-06-29T11:01:59.535Z,34.75
2023-06-29T11:04:27.653Z,34.79
2023-06-29T11:06:55.611Z,33.42
2023-06-29T11:09:23.399Z,32.77
2023-06-29T11:11:51.295Z,34.19
2023-06-29T11:14:20.066Z,34.41
2023-06-29T11:16:48.576Z,35.74
2023-06-29T11:19:17.976Z,35.02
2023-06-29T11:21:46.066Z,34.41
2023-06-29T11:24:14.614Z,35.71
2023-06-29T11:26:42.392Z,35.93
2023-06-29T11:29:10.213Z,35.74
2023-06-29T11:31:38.175Z,35.12
2023-06-29T11:34:06.098Z,35.90
2023-06-29T11:36:37.828Z,34.70
2023-06-29T11:39:08.561Z,35.79
2023-06-29T11:41:36.489Z,35.39
2023-06-29T11:44:04.582Z,37.53
2023-06-29T11:46:35.916Z,37.73
2023-06-29T11:49:05.671Z,36.07
2023-06-29T11:51:35.395Z,37.52
2023-06-29T11:54:03.489Z,35.63
2023-06-29T11:56:36.751Z,36.08
2023-06-29T11:59:07.540Z,36.42
2023-06-29T12:01:36.346Z,36.05
2023-06-29T12:04:05.967Z,36.58
2023-06-29T12:06:35.433Z,34.61
2023-06-29T12:09:11.298Z,36.00
2023-06-29T12:11:40.513Z,36.85
2023-06-29T12:14:10.391Z,37.80
2023-06-29T12:19:14.442Z,38.23
2023-06-29T12:21:44.142Z,37.18
2023-06-29T12:24:17.167Z,36.23
2023-06-29T12:26:45.063Z,33.71
2023-06-29T12:29:12.799Z,36.08
2023-06-29T12:31:41.484Z,37.98
2023-06-29T12:34:09.286Z,37.21
2023-06-29T12:36:37.608Z,37.66
2023-06-29T12:39:06.830Z,36.06
2023-06-29T12:41:34.736Z,37.25
2023-06-29T12:44:02.558Z,36.93
2023-06-29T12:46:31.537Z,37.74
2023-06-29T12:49:01.227Z,37.63
2023-06-29T12:51:30.332Z,37.08
2023-06-29T12:53:58.194Z,35.68
2023-06-29T12:56:27.946Z,35.61
2023-06-29T12:58:55.743Z,34.19
2023-06-29T13:01:24.119Z,36.84
2023-06-29T13:03:52.072Z,35.98
2023-06-29T13:06:19.945Z,37.73
2023-06-29T13:08:47.620Z,35.92
2023-06-29T13:11:15.432Z,34.13
2023-06-29T13:13:44.874Z,33.32
2023-06-29T13:16:12.656Z,32.82
2023-06-29T13:18:40.732Z,31.56
2023-06-29T13:21:08.541Z,31.11
2023-06-29T13:23:36.358Z,31.33
2023-06-29T13:26:04.163Z,31.71
2023-06-29T13:28:32.399Z,31.12
2023-06-29T13:31:03.414Z,31.69
2023-06-29T13:33:31.313Z,33.18
2023-06-29T13:35:59.091Z,34.18
2023-06-29T13:38:26.842Z,35.41
2023-06-29T13:40:54.598Z,36.52
2023-06-29T13:43:22.324Z,37.19
2023-06-29T13:45:50.564Z,34.68
2023-06-29T13:48:20.831Z,34.03
2023-06-29T13:50:48.719Z,33.14
2023-06-29T13:53:17.021Z,32.49
2023-06-29T13:55:46.326Z,32.08
2023-06-29T13:58:14.239Z,30.93
2023-06-29T14:00:42.503Z,31.31
2023-06-29T14:03:10.390Z,31.51
2023-06-29T14:05:39.627Z,31.48
2023-06-29T14:08:07.562Z,31.63
2023-06-29T14:10:35.393Z,30.67
2023-06-29T14:13:03.189Z,30.58
2023-06-29T14:15:32.366Z,30.13
2023-06-29T14:18:00.256Z,30.15
2023-06-29T14:20:28.127Z,29.61
2023-06-29T14:22:57.316Z,29.88
2023-06-29T14:25:25.082Z,29.84
2023-06-29T14:27:52.867Z,29.37
2023-06-29T14:30:20.697Z,29.41
2023-06-29T14:32:51.329Z,29.50
2023-06-29T14:35:31.415Z,29.06
2023-06-29T14:38:14.324Z,29.22
2023-06-29T14:40:42.890Z,29.12
2023-06-29T14:43:11.851Z,29.11
2023-06-29T14:45:39.612Z,28.26
2023-06-29T14:48:07.927Z,28.23
2023-06-29T14:50:35.743Z,27.93
2023-06-29T14:53:03.927Z,28.08
2023-06-29T14:55:33.097Z,28.06
2023-06-29T14:58:01.636Z,27.73
2023-06-29T15:00:29.503Z,27.76
2023-06-29T15:02:57.408Z,27.65
2023-06-29T15:05:25.191Z,27.50
2023-06-29T15:07:53.081Z,27.54
2023-06-29T15:10:20.897Z,27.63
2023-06-29T15:12:50.355Z,27.40
2023-06-29T15:15:18.086Z,27.47
2023-06-29T15:17:46.054Z,27.42
2023-06-29T15:20:15.427Z,27.59
2023-06-29T15:22:44.160Z,27.28
2023-06-29T15:25:12.311Z,26.99
2023-06-29T15:27:40.102Z,27.14
2023-06-29T15:30:10.329Z,27.13
2023-06-29T15:32:38.092Z,26.89
2023-06-29T15:35:06.777Z,27.08
2023-06-29T15:37:35.182Z,26.90
2023-06-29T15:40:03.408Z,26.64
2023-06-29T15:42:31.262Z,26.69
2023-06-29T15:44:59.057Z,26.85
2023-06-29T15:47:28.349Z,26.63
2023-06-29T15:49:56.887Z,26.73
2023-06-29T15:52:24.843Z,26.65
2023-06-29T15:54:52.712Z,26.70
2023-06-29T15:57:20.467Z,26.86
2023-06-29T15:59:48.646Z,26.64
2023-06-29T16:02:16.732Z,26.67
2023-06-29T16:04:46.318Z,26.50
2023-06-29T16:07:14.141Z,26.47
2023-06-29T16:09:41.960Z,26.66
2023-06-29T16:12:10.693Z,26.64
2023-06-29T16:14:38.455Z,26.66
2023-06-29T16:17:06.389Z,26.43
2023-06-29T16:19:34.249Z,26.50
2023-06-29T16:22:03.397Z,26.40
2023-06-29T16:24:31.122Z,26.06
2023-06-29T16:26:58.952Z,26.07
2023-06-29T16:29:26.729Z,26.03
2023-06-29T16:31:54.557Z,26.01
2023-06-29T16:34:22.463Z,25.92
2023-06-29T16:36:50.300Z,26.14
2023-06-29T16:39:19.593Z,25.98
2023-06-29T16:41:47.877Z,26.00
2023-06-29T16:44:15.616Z,26.04
2023-06-29T16:46:43.426Z,26.07
2023-06-29T16:49:11.180Z,25.71
2023-06-29T16:51:38.965Z,25.62
2023-06-29T16:54:06.725Z,25.83
2023-06-29T16:56:35.903Z,25.72
2023-06-29T16:59:03.692Z,25.43
2023-06-29T17:01:31.552Z,25.51
2023-06-29T17:03:59.391Z,25.47
2023-06-29T17:06:27.197Z,25.32
2023-06-29T17:08:54.979Z,25.28
2023-06-29T17:11:22.749Z,25.13
2023-06-29T17:13:51.894Z,25.09
2023-06-29T17:16:19.785Z,25.12
2023-06-29T17:18:47.633Z,25.04
2023-06-29T17:21:16.068Z,24.96
2023-06-29T17:23:43.864Z,24.82
2023-06-29T17:26:11.660Z,24.53
2023-06-29T17:28:40.433Z,24.74
2023-06-29T17:31:09.614Z,24.71
2023-06-29T17:33:49.262Z,24.68
2023-06-29T17:36:22.298Z,24.71
2023-06-29T17:38:50.197Z,24.55
2023-06-29T17:41:18.039Z,24.55
2023-06-29T17:43:45.796Z,24.43
2023-06-29T17:46:15.326Z,24.61
2023-06-29T17:48:43.110Z,24.46
2023-06-29T17:51:14.986Z,24.53
2023-06-29T17:53:43.922Z,24.53
2023-06-29T17:56:13.375Z,24.56
2023-06-29T17:58:41.152Z,24.63
2023-06-29T18:01:08.897Z,24.56
2023-06-29T18:03:39.739Z,24.63
2023-06-29T18:06:08.150Z,24.66
2023-06-29T18:08:35.932Z,24.67
2023-06-29T18:11:03.972Z,24.63
2023-06-29T18:13:31.742Z,24.48
2023-06-29T18:15:59.524Z,24.58
2023-06-29T18:18:27.306Z,24.55
2023-06-29T18:20:56.581Z,24.45
2023-06-29T18:23:25.426Z,24.41
2023-06-29T18:25:53.172Z,24.40
2023-06-29T18:28:20.982Z,24.33
2023-06-29T18:30:48.759Z,24.24
2023-06-29T18:33:16.657Z,24.19
2023-06-29T18:35:44.976Z,24.23
2023-06-29T18:38:14.425Z,24.21
2023-06-29T18:40:42.282Z,24.12
2023-06-29T18:43:10.742Z,24.15
2023-06-29T18:45:38.547Z,24.13
2023-06-29T18:48:06.710Z,24.16
2023-06-29T18:50:34.552Z,24.12
2023-06-29T18:53:02.307Z,23.94
2023-06-29T18:55:34.262Z,24.07
2023-06-29T18:58:01.906Z,23.92
2023-06-29T19:00:29.663Z,23.72
2023-06-29T19:02:57.550Z,23.76
2023-06-29T19:05:25.410Z,23.83
2023-06-29T19:10:21.377Z,23.71
2023-06-29T19:12:50.466Z,23.81
2023-06-29T19:15:19.552Z,23.68
2023-06-29T19:17:47.370Z,23.63
2023-06-29T19:20:15.194Z,23.61
2023-06-29T19:22:42.957Z,23.55
2023-06-29T19:25:11.016Z,23.48
2023-06-29T19:27:39.039Z,23.46
2023-06-29T19:30:09.418Z,23.42
2023-06-29T19:32:37.360Z,23.22
2023-06-29T19:35:05.843Z,23.22
2023-06-29T19:37:33.680Z,23.16
2023-06-29T19:40:01.452Z,23.24
2023-06-29T19:42:30.208Z,23.16
2023-06-29T19:44:57.911Z,23.23
2023-06-29T19:47:27.110Z,23.08
2023-06-29T19:49:55.023Z,22.92
2023-06-29T19:52:23.007Z,23.10
2023-06-29T19:54:50.791Z,23.02
2023-06-29T19:57:18.665Z,23.00
2023-06-29T19:59:46.450Z,22.86
2023-06-29T20:02:14.221Z,22.72
2023-06-29T20:04:43.402Z,22.46
2023-06-29T20:07:11.236Z,22.28
2023-06-29T20:09:39.034Z,22.38
2023-06-29T20:12:07.718Z,22.29
2023-06-29T20:14:35.810Z,22.25
2023-06-29T20:17:03.670Z,22.13
2023-06-29T20:19:32.043Z,22.02
2023-06-29T20:22:01.113Z,22.09
2023-06-29T20:24:28.806Z,21.82
2023-06-29T20:26:56.631Z,21.86
2023-06-29T20:29:24.487Z,21.76
2023-06-29T20:31:52.274Z,21.67
2023-06-29T20:34:20.140Z,21.70
2023-06-29T20:36:47.925Z,21.73
2023-06-29T20:39:17.070Z,21.55
2023-06-29T20:41:44.985Z,21.51
2023-06-29T20:44:15.363Z,21.35
2023-06-29T20:46:43.645Z,21.29
2023-06-29T20:49:11.732Z,21.16
2023-06-29T20:51:39.510Z,21.08
2023-06-29T20:54:08.539Z,21.13
2023-06-29T20:56:37.717Z,21.12
2023-06-29T20:59:05.608Z,21.09
2023-06-29T21:01:33.821Z,20.96
2023-06-29T21:04:01.872Z,21.01
2023-06-29T21:06:29.833Z,21.13
2023-06-29T21:08:57.642Z,21.14
2023-06-29T21:11:25.700Z,20.87
2023-06-29T21:13:55.207Z,21.02
2023-06-29T21:16:23.420Z,21.27
2023-06-29T21:18:51.797Z,21.28
2023-06-29T21:21:20.127Z,21.14
2023-06-29T21:23:48.672Z,21.10
2023-06-29T21:26:16.628Z,21.11
2023-06-29T21:28:45.592Z,20.92
2023-06-29T21:31:16.354Z,20.80
2023-06-29T21:33:44.515Z,20.94
2023-06-29T21:36:13.516Z,21.05
2023-06-29T21:38:46.567Z,20.75
2023-06-29T21:41:18.634Z,20.56
2023-06-29T21:43:46.415Z,20.57
2023-06-29T21:46:15.535Z,20.67
2023-06-29T21:48:43.373Z,20.74
2023-06-29T21:51:11.181Z,20.72
2023-06-29T21:53:38.958Z,20.70
2023-06-29T21:56:21.286Z,20.79
2023-06-29T21:58:54.187Z,20.75
2023-06-29T22:01:23.466Z,20.82
2023-06-29T22:03:51.324Z,20.84
2023-06-29T22:06:19.300Z,20.81
2023-06-29T22:08:47.191Z,20.69
2023-06-29T22:11:14.989Z,20.59
2023-06-29T22:13:45.655Z,20.69
2023-06-29T22:16:13.450Z,20.69
2023-06-29T22:18:42.567Z,20.79
2023-06-29T22:21:11.049Z,20.54
2023-06-29T22:23:38.971Z,20.69
2023-06-29T22:26:06.734Z,20.80
2023-06-29T22:28:34.442Z,20.77
2023-06-29T22:31:02.181Z,20.57
2023-06-29T22:33:29.974Z,20.55
2023-06-29T22:35:59.198Z,20.59
2023-06-29T22:38:26.974Z,20.39
2023-06-29T22:40:54.694Z,20.42
2023-06-29T22:43:22.403Z,20.32
2023-06-29T22:45:50.168Z,20.21
2023-06-29T22:48:17.914Z,20.33
2023-06-29T22:50:45.658Z,20.41
2023-06-29T22:53:14.780Z,20.38
2023-06-29T22:55:43.296Z,20.25
2023-06-29T22:58:11.151Z,20.24
2023-06-29T23:00:38.956Z,20.15
2023-06-29T23:03:06.871Z,20.13
2023-06-29T23:05:34.757Z,19.96
2023-06-29T23:08:02.489Z,19.95
2023-06-29T23:10:31.624Z,20.05
2023-06-29T23:12:59.344Z,20.02
2023-06-29T23:15:27.890Z,20.09
2023-06-29T23:17:55.664Z,20.05
2023-06-29T23:20:28.422Z,20.05
2023-06-29T23:22:58.438Z,19.99
2023-06-29T23:25:26.919Z,19.88
2023-06-29T23:27:56.056Z,19.96
2023-06-29T23:30:23.800Z,19.77
2023-06-29T23:32:51.799Z,19.89
2023-06-29T23:35:21.709Z,19.92
2023-06-29T23:37:49.612Z,19.92
2023-06-29T23:40:17.430Z,19.74
2023-06-29T23:42:45.266Z,19.88
2023-06-29T23:45:14.502Z,19.67
2023-06-29T23:47:42.296Z,19.69
2023-06-29T23:50:12.398Z,19.49
2023-06-29T23:52:40.675Z,19.73
2023-06-29T23:55:09.305Z,19.65
2023-06-29T23:57:37.179Z,19.64
